メインページ
METAR-TAF:

METAR-TAF

空港 :

ヤクーツク空港

ヤクーツク, ロシア

緯度: 62-01N, 経度: 129-43E, 海抜: 103m

現時点の気象観測

当レポートは24分前の11:00(UTC)に作成
の風 4kt
気温 -20°C
湿度 77%
気圧 1029 hPa
視程10km以上
1,500メートル以下は雲なし、積乱雲なし

METAR: UEEE 141100Z 35002MPS CAVOK M20/M23 Q1029 R23L/420155 NOSIG RMK QFE763

時間: 20:24 (11:24 UTC)

予報

当レポートは3時間24分前の08:00(UTC)に作成
予報は14日の 09時(UTC)から 15日の 15時(UTC)まで有効
北西の風 6kt、最大16ktの突風を伴う
視程10km以上
高度3000ftの雲は散在している, 積乱雲.
高度7000ftの曇り
14日の 09時(UTC)から 14日の 15時(UTC)まで一時的に
視程: 2100m
高度700ftの雲は散在している
高度2000ftの千切れ雲あり, 積乱雲.
高度7000ftの曇り
弱いにわか雪, 靄
14日の 15時(UTC)から 15日の 03時(UTC)まで一時的に
変向風 2kt
視程: 0300m
高度300ftの
にわか雪, 着氷性の霧

TAF: UEEE 140800Z 1409/1515 31003G08MPS 9999 SCT030CB OVC070 TEMPO 1409/1415 2100 -SHSN BR SCT007 BKN020CB OVC070 TEMPO 1415/1503 VRB01MPS 0300 SHSN FZFG VV003

4,000以上の空港の気象観測と天気予報(METAR報とTAF報)

利用可能な観測所は地図上に黄色い丸と赤い丸で示す。

丸の上にカーソルを重ねると観測所名を参照できる。

次にクリックすると気象観測と天気予報を参照できる。

マップの切り替え:黒色「×」印の緑ボタンをクリックして拡大、「-」印の緑ボタンをクリックして縮小、緑色の三角印をクリックして隣りの地図に切り替え


METAR-TAF: